sensor_id;sensor_type;location;lat;lon;timestamp;P1;durP1;ratioP1;P2;durP2;ratioP2
17283;SDS011;8760;52.248;20.952;2022-07-30T00:02:05;2.45;;;1.17;;
17283;SDS011;8760;52.248;20.952;2022-07-30T00:04:34;2.72;;;1.23;;
17283;SDS011;8760;52.248;20.952;2022-07-30T00:07:00;3.45;;;1.40;;
17283;SDS011;8760;52.248;20.952;2022-07-30T00:09:28;3.97;;;1.40;;
17283;SDS011;8760;52.248;20.952;2022-07-30T00:11:55;3.05;;;1.33;;
17283;SDS011;8760;52.248;20.952;2022-07-30T00:14:22;3.50;;;1.60;;
17283;SDS011;8760;52.248;20.952;2022-07-30T00:16:48;2.72;;;1.30;;
17283;SDS011;8760;52.248;20.952;2022-07-30T00:19:15;3.33;;;1.50;;
17283;SDS011;8760;52.248;20.952;2022-07-30T00:21:43;2.53;;;1.10;;
17283;SDS011;8760;52.248;20.952;2022-07-30T00:24:10;4.03;;;1.70;;
17283;SDS011;8760;52.248;20.952;2022-07-30T00:26:37;3.63;;;1.50;;
17283;SDS011;8760;52.248;20.952;2022-07-30T00:29:04;3.22;;;1.30;;
17283;SDS011;8760;52.248;20.952;2022-07-30T00:31:31;4.88;;;1.70;;
17283;SDS011;8760;52.248;20.952;2022-07-30T00:33:58;2.80;;;1.50;;
17283;SDS011;8760;52.248;20.952;2022-07-30T00:36:25;2.35;;;1.23;;
17283;SDS011;8760;52.248;20.952;2022-07-30T00:38:53;3.50;;;1.50;;
17283;SDS011;8760;52.248;20.952;2022-07-30T00:41:20;2.17;;;1.30;;
17283;SDS011;8760;52.248;20.952;2022-07-30T00:43:46;1.92;;;1.50;;
17283;SDS011;8760;52.248;20.952;2022-07-30T00:46:13;1.75;;;1.30;;
17283;SDS011;8760;52.248;20.952;2022-07-30T00:48:40;2.20;;;1.20;;
17283;SDS011;8760;52.248;20.952;2022-07-30T00:51:07;4.93;;;1.48;;
17283;SDS011;8760;52.248;20.952;2022-07-30T00:53:35;2.95;;;1.40;;
17283;SDS011;8760;52.248;20.952;2022-07-30T00:56:03;3.25;;;1.50;;
17283;SDS011;8760;52.248;20.952;2022-07-30T00:58:30;5.55;;;1.42;;
17283;SDS011;8760;52.248;20.952;2022-07-30T01:00:57;5.30;;;1.60;;
17283;SDS011;8760;52.248;20.952;2022-07-30T01:03:24;5.50;;;1.48;;
17283;SDS011;8760;52.248;20.952;2022-07-30T01:05:51;2.22;;;1.20;;
17283;SDS011;8760;52.248;20.952;2022-07-30T01:08:17;2.00;;;1.20;;
17283;SDS011;8760;52.248;20.952;2022-07-30T01:10:44;2.65;;;1.55;;
17283;SDS011;8760;52.248;20.952;2022-07-30T01:13:13;3.80;;;1.42;;
17283;SDS011;8760;52.248;20.952;2022-07-30T01:15:39;3.58;;;1.70;;
17283;SDS011;8760;52.248;20.952;2022-07-30T01:18:07;2.72;;;1.50;;
17283;SDS011;8760;52.248;20.952;2022-07-30T01:20:37;4.32;;;1.30;;
17283;SDS011;8760;52.248;20.952;2022-07-30T01:23:09;1.40;;;1.30;;
17283;SDS011;8760;52.248;20.952;2022-07-30T01:25:46;2.33;;;1.60;;
17283;SDS011;8760;52.248;20.952;2022-07-30T01:28:17;1.90;;;1.48;;
17283;SDS011;8760;52.248;20.952;2022-07-30T01:30:47;2.33;;;1.55;;
17283;SDS011;8760;52.248;20.952;2022-07-30T01:33:16;3.17;;;1.55;;
17283;SDS011;8760;52.248;20.952;2022-07-30T01:35:45;3.40;;;1.38;;
17283;SDS011;8760;52.248;20.952;2022-07-30T01:38:13;4.20;;;1.42;;
17283;SDS011;8760;52.248;20.952;2022-07-30T01:40:43;3.25;;;1.40;;
17283;SDS011;8760;52.248;20.952;2022-07-30T01:43:11;4.20;;;1.63;;
17283;SDS011;8760;52.248;20.952;2022-07-30T01:45:38;2.33;;;1.45;;
17283;SDS011;8760;52.248;20.952;2022-07-30T01:48:08;2.33;;;1.60;;
17283;SDS011;8760;52.248;20.952;2022-07-30T01:50:36;3.05;;;1.42;;
17283;SDS011;8760;52.248;20.952;2022-07-30T01:53:03;2.40;;;1.50;;
17283;SDS011;8760;52.248;20.952;2022-07-30T01:55:33;5.72;;;1.45;;
17283;SDS011;8760;52.248;20.952;2022-07-30T01:58:01;4.05;;;1.70;;
17283;SDS011;8760;52.248;20.952;2022-07-30T02:00:32;4.07;;;1.67;;
17283;SDS011;8760;52.248;20.952;2022-07-30T02:03:03;3.17;;;1.40;;
17283;SDS011;8760;52.248;20.952;2022-07-30T02:05:30;2.17;;;1.42;;
17283;SDS011;8760;52.248;20.952;2022-07-30T02:08:00;2.47;;;1.52;;
17283;SDS011;8760;52.248;20.952;2022-07-30T02:10:32;2.50;;;1.50;;
17283;SDS011;8760;52.248;20.952;2022-07-30T02:13:04;1.42;;;1.25;;
17283;SDS011;8760;52.248;20.952;2022-07-30T02:15:33;2.10;;;1.33;;
17283;SDS011;8760;52.248;20.952;2022-07-30T02:18:06;2.95;;;1.30;;
17283;SDS011;8760;52.248;20.952;2022-07-30T02:20:35;2.35;;;1.42;;
17283;SDS011;8760;52.248;20.952;2022-07-30T02:23:04;3.97;;;1.35;;
17283;SDS011;8760;52.248;20.952;2022-07-30T02:25:33;2.63;;;1.40;;
17283;SDS011;8760;52.248;20.952;2022-07-30T02:28:04;3.08;;;1.63;;
17283;SDS011;8760;52.248;20.952;2022-07-30T02:30:36;2.05;;;1.50;;
17283;SDS011;8760;52.248;20.952;2022-07-30T02:33:08;2.42;;;1.20;;
17283;SDS011;8760;52.248;20.952;2022-07-30T02:35:37;1.52;;;1.30;;
17283;SDS011;8760;52.248;20.952;2022-07-30T02:38:05;3.22;;;1.25;;
17283;SDS011;8760;52.248;20.952;2022-07-30T02:40:34;2.10;;;1.50;;
17283;SDS011;8760;52.248;20.952;2022-07-30T02:43:01;3.13;;;1.65;;
17283;SDS011;8760;52.248;20.952;2022-07-30T02:45:28;1.98;;;1.30;;
17283;SDS011;8760;52.248;20.952;2022-07-30T02:47:57;2.17;;;1.42;;
17283;SDS011;8760;52.248;20.952;2022-07-30T02:50:27;2.60;;;1.23;;
17283;SDS011;8760;52.248;20.952;2022-07-30T02:52:55;1.85;;;1.27;;
17283;SDS011;8760;52.248;20.952;2022-07-30T02:55:23;4.65;;;1.30;;
17283;SDS011;8760;52.248;20.952;2022-07-30T02:57:52;5.75;;;1.48;;
17283;SDS011;8760;52.248;20.952;2022-07-30T03:00:20;3.42;;;1.60;;
17283;SDS011;8760;52.248;20.952;2022-07-30T03:02:48;3.30;;;1.50;;
17283;SDS011;8760;52.248;20.952;2022-07-30T03:05:19;4.55;;;1.40;;
17283;SDS011;8760;52.248;20.952;2022-07-30T03:07:46;3.78;;;1.50;;
17283;SDS011;8760;52.248;20.952;2022-07-30T03:10:14;1.45;;;1.35;;
17283;SDS011;8760;52.248;20.952;2022-07-30T03:12:43;2.83;;;1.58;;
17283;SDS011;8760;52.248;20.952;2022-07-30T03:15:11;2.40;;;1.40;;
17283;SDS011;8760;52.248;20.952;2022-07-30T03:17:39;2.55;;;1.50;;
17283;SDS011;8760;52.248;20.952;2022-07-30T03:20:10;3.85;;;1.30;;
17283;SDS011;8760;52.248;20.952;2022-07-30T03:22:42;3.13;;;1.50;;
17283;SDS011;8760;52.248;20.952;2022-07-30T03:25:13;3.50;;;1.55;;
17283;SDS011;8760;52.248;20.952;2022-07-30T03:27:43;2.05;;;1.38;;
17283;SDS011;8760;52.248;20.952;2022-07-30T03:30:11;2.05;;;1.25;;
17283;SDS011;8760;52.248;20.952;2022-07-30T03:32:39;3.60;;;1.55;;
17283;SDS011;8760;52.248;20.952;2022-07-30T03:35:07;2.00;;;1.40;;
17283;SDS011;8760;52.248;20.952;2022-07-30T03:37:35;3.40;;;1.02;;
17283;SDS011;8760;52.248;20.952;2022-07-30T03:40:05;6.32;;;1.40;;
17283;SDS011;8760;52.248;20.952;2022-07-30T03:42:33;2.67;;;1.38;;
17283;SDS011;8760;52.248;20.952;2022-07-30T03:45:01;2.65;;;1.20;;
17283;SDS011;8760;52.248;20.952;2022-07-30T03:47:30;1.83;;;1.48;;
17283;SDS011;8760;52.248;20.952;2022-07-30T03:49:58;2.05;;;1.42;;
17283;SDS011;8760;52.248;20.952;2022-07-30T03:52:25;3.40;;;1.50;;
17283;SDS011;8760;52.248;20.952;2022-07-30T03:54:53;4.40;;;1.60;;
17283;SDS011;8760;52.248;20.952;2022-07-30T03:57:21;4.63;;;1.48;;
17283;SDS011;8760;52.248;20.952;2022-07-30T03:59:48;1.65;;;1.40;;
17283;SDS011;8760;52.248;20.952;2022-07-30T04:02:16;2.00;;;1.40;;
17283;SDS011;8760;52.248;20.952;2022-07-30T04:04:43;1.98;;;1.60;;
17283;SDS011;8760;52.248;20.952;2022-07-30T04:07:10;3.40;;;1.70;;
17283;SDS011;8760;52.248;20.952;2022-07-30T04:09:37;2.80;;;1.60;;
17283;SDS011;8760;52.248;20.952;2022-07-30T04:12:04;1.63;;;1.33;;
17283;SDS011;8760;52.248;20.952;2022-07-30T04:14:36;3.55;;;1.60;;
17283;SDS011;8760;52.248;20.952;2022-07-30T04:17:06;4.78;;;1.60;;
17283;SDS011;8760;52.248;20.952;2022-07-30T04:19:39;5.65;;;1.60;;
17283;SDS011;8760;52.248;20.952;2022-07-30T04:22:09;2.67;;;1.40;;
17283;SDS011;8760;52.248;20.952;2022-07-30T04:24:38;2.42;;;1.67;;
17283;SDS011;8760;52.248;20.952;2022-07-30T04:27:05;2.70;;;1.48;;
17283;SDS011;8760;52.248;20.952;2022-07-30T04:29:32;3.28;;;1.67;;
17283;SDS011;8760;52.248;20.952;2022-07-30T04:32:01;3.60;;;1.50;;
17283;SDS011;8760;52.248;20.952;2022-07-30T04:34:28;2.53;;;1.33;;
17283;SDS011;8760;52.248;20.952;2022-07-30T04:36:55;2.42;;;1.73;;
17283;SDS011;8760;52.248;20.952;2022-07-30T04:39:22;2.67;;;1.40;;
17283;SDS011;8760;52.248;20.952;2022-07-30T04:41:49;2.80;;;1.30;;
17283;SDS011;8760;52.248;20.952;2022-07-30T04:44:16;2.00;;;1.50;;
17283;SDS011;8760;52.248;20.952;2022-07-30T04:46:45;3.53;;;1.48;;
17283;SDS011;8760;52.248;20.952;2022-07-30T04:49:13;2.30;;;1.50;;
17283;SDS011;8760;52.248;20.952;2022-07-30T04:51:42;2.08;;;1.45;;
17283;SDS011;8760;52.248;20.952;2022-07-30T04:54:10;3.75;;;1.17;;
17283;SDS011;8760;52.248;20.952;2022-07-30T04:56:39;2.22;;;1.65;;
17283;SDS011;8760;52.248;20.952;2022-07-30T04:59:06;3.30;;;1.30;;
17283;SDS011;8760;52.248;20.952;2022-07-30T05:01:35;4.47;;;1.60;;
17283;SDS011;8760;52.248;20.952;2022-07-30T05:04:05;2.95;;;1.73;;
17283;SDS011;8760;52.248;20.952;2022-07-30T05:06:33;1.80;;;1.58;;
17283;SDS011;8760;52.248;20.952;2022-07-30T05:09:01;6.32;;;2.63;;
17283;SDS011;8760;52.248;20.952;2022-07-30T05:11:28;2.95;;;1.52;;
17283;SDS011;8760;52.248;20.952;2022-07-30T05:13:55;2.75;;;1.70;;
17283;SDS011;8760;52.248;20.952;2022-07-30T05:16:22;2.30;;;1.55;;
17283;SDS011;8760;52.248;20.952;2022-07-30T05:18:49;2.85;;;1.90;;
17283;SDS011;8760;52.248;20.952;2022-07-30T05:21:17;4.63;;;1.85;;
17283;SDS011;8760;52.248;20.952;2022-07-30T05:23:43;2.05;;;1.80;;
17283;SDS011;8760;52.248;20.952;2022-07-30T05:26:10;4.20;;;1.75;;
17283;SDS011;8760;52.248;20.952;2022-07-30T05:28:37;4.50;;;1.73;;
17283;SDS011;8760;52.248;20.952;2022-07-30T05:31:04;2.63;;;2.42;;
17283;SDS011;8760;52.248;20.952;2022-07-30T05:33:30;4.60;;;2.22;;
17283;SDS011;8760;52.248;20.952;2022-07-30T05:35:57;1.60;;;1.50;;
17283;SDS011;8760;52.248;20.952;2022-07-30T05:38:26;3.20;;;1.92;;
17283;SDS011;8760;52.248;20.952;2022-07-30T05:40:53;2.00;;;1.45;;
17283;SDS011;8760;52.248;20.952;2022-07-30T05:43:20;7.28;;;1.75;;
17283;SDS011;8760;52.248;20.952;2022-07-30T05:45:47;3.58;;;1.40;;
17283;SDS011;8760;52.248;20.952;2022-07-30T05:48:13;1.83;;;1.55;;
17283;SDS011;8760;52.248;20.952;2022-07-30T05:50:40;2.75;;;1.50;;
17283;SDS011;8760;52.248;20.952;2022-07-30T05:53:07;2.13;;;1.42;;
17283;SDS011;8760;52.248;20.952;2022-07-30T05:55:35;4.28;;;1.88;;
17283;SDS011;8760;52.248;20.952;2022-07-30T05:58:02;4.97;;;1.70;;
17283;SDS011;8760;52.248;20.952;2022-07-30T06:00:28;2.70;;;1.27;;
17283;SDS011;8760;52.248;20.952;2022-07-30T06:02:55;6.55;;;2.00;;
17283;SDS011;8760;52.248;20.952;2022-07-30T06:05:22;3.00;;;2.00;;
17283;SDS011;8760;52.248;20.952;2022-07-30T06:07:49;3.08;;;1.90;;
17283;SDS011;8760;52.248;20.952;2022-07-30T06:10:15;5.07;;;1.85;;
17283;SDS011;8760;52.248;20.952;2022-07-30T06:12:43;5.05;;;1.90;;
17283;SDS011;8760;52.248;20.952;2022-07-30T06:15:10;3.25;;;1.80;;
17283;SDS011;8760;52.248;20.952;2022-07-30T06:17:41;5.90;;;1.63;;
17283;SDS011;8760;52.248;20.952;2022-07-30T06:20:09;3.20;;;1.58;;
17283;SDS011;8760;52.248;20.952;2022-07-30T06:22:37;3.95;;;3.15;;
17283;SDS011;8760;52.248;20.952;2022-07-30T06:25:04;4.13;;;2.22;;
17283;SDS011;8760;52.248;20.952;2022-07-30T06:27:31;7.15;;;2.10;;
17283;SDS011;8760;52.248;20.952;2022-07-30T06:30:00;5.47;;;1.88;;
17283;SDS011;8760;52.248;20.952;2022-07-30T06:32:26;3.08;;;1.70;;
17283;SDS011;8760;52.248;20.952;2022-07-30T06:34:53;3.33;;;1.60;;
17283;SDS011;8760;52.248;20.952;2022-07-30T06:37:20;5.32;;;2.10;;
17283;SDS011;8760;52.248;20.952;2022-07-30T06:39:47;3.55;;;2.00;;
17283;SDS011;8760;52.248;20.952;2022-07-30T06:42:14;3.90;;;1.80;;
17283;SDS011;8760;52.248;20.952;2022-07-30T06:44:41;3.88;;;2.00;;
17283;SDS011;8760;52.248;20.952;2022-07-30T06:47:09;8.18;;;1.80;;
17283;SDS011;8760;52.248;20.952;2022-07-30T06:49:36;4.45;;;1.95;;
17283;SDS011;8760;52.248;20.952;2022-07-30T06:52:03;7.05;;;1.75;;
17283;SDS011;8760;52.248;20.952;2022-07-30T06:54:30;8.73;;;2.30;;
17283;SDS011;8760;52.248;20.952;2022-07-30T06:56:57;5.95;;;2.38;;
17283;SDS011;8760;52.248;20.952;2022-07-30T06:59:24;5.28;;;2.28;;
17283;SDS011;8760;52.248;20.952;2022-07-30T07:01:51;4.30;;;1.88;;
17283;SDS011;8760;52.248;20.952;2022-07-30T07:04:20;4.88;;;2.08;;
17283;SDS011;8760;52.248;20.952;2022-07-30T07:06:47;5.05;;;2.33;;
17283;SDS011;8760;52.248;20.952;2022-07-30T07:09:13;7.88;;;2.22;;
17283;SDS011;8760;52.248;20.952;2022-07-30T07:11:40;4.03;;;2.38;;
17283;SDS011;8760;52.248;20.952;2022-07-30T07:14:07;3.60;;;1.90;;
17283;SDS011;8760;52.248;20.952;2022-07-30T07:16:33;6.13;;;2.60;;
17283;SDS011;8760;52.248;20.952;2022-07-30T07:19:00;6.25;;;2.10;;
17283;SDS011;8760;52.248;20.952;2022-07-30T07:21:28;4.45;;;1.75;;
17283;SDS011;8760;52.248;20.952;2022-07-30T07:23:55;6.20;;;2.17;;
17283;SDS011;8760;52.248;20.952;2022-07-30T07:26:24;6.10;;;1.85;;
17283;SDS011;8760;52.248;20.952;2022-07-30T07:28:51;4.20;;;1.65;;
17283;SDS011;8760;52.248;20.952;2022-07-30T07:31:18;11.32;;;2.30;;
17283;SDS011;8760;52.248;20.952;2022-07-30T07:33:44;5.03;;;1.77;;
17283;SDS011;8760;52.248;20.952;2022-07-30T07:36:12;4.95;;;3.75;;
17283;SDS011;8760;52.248;20.952;2022-07-30T07:38:40;4.60;;;2.00;;
17283;SDS011;8760;52.248;20.952;2022-07-30T07:41:07;5.47;;;2.85;;
17283;SDS011;8760;52.248;20.952;2022-07-30T07:43:33;3.50;;;2.30;;
17283;SDS011;8760;52.248;20.952;2022-07-30T07:46:00;5.28;;;2.40;;
17283;SDS011;8760;52.248;20.952;2022-07-30T07:48:27;4.43;;;1.80;;
17283;SDS011;8760;52.248;20.952;2022-07-30T07:50:54;4.68;;;2.17;;
17283;SDS011;8760;52.248;20.952;2022-07-30T07:53:20;4.45;;;1.92;;
17283;SDS011;8760;52.248;20.952;2022-07-30T07:55:48;2.50;;;2.03;;
17283;SDS011;8760;52.248;20.952;2022-07-30T07:58:16;2.83;;;1.70;;
17283;SDS011;8760;52.248;20.952;2022-07-30T08:00:43;3.70;;;2.17;;
17283;SDS011;8760;52.248;20.952;2022-07-30T08:03:10;6.28;;;1.73;;
17283;SDS011;8760;52.248;20.952;2022-07-30T08:05:36;2.95;;;1.73;;
17283;SDS011;8760;52.248;20.952;2022-07-30T08:08:03;5.32;;;2.35;;
17283;SDS011;8760;52.248;20.952;2022-07-30T08:10:30;3.25;;;1.88;;
17283;SDS011;8760;52.248;20.952;2022-07-30T08:12:59;3.20;;;1.80;;
17283;SDS011;8760;52.248;20.952;2022-07-30T08:15:27;4.15;;;2.17;;
17283;SDS011;8760;52.248;20.952;2022-07-30T08:17:53;5.00;;;2.05;;
17283;SDS011;8760;52.248;20.952;2022-07-30T08:20:20;2.63;;;2.22;;
17283;SDS011;8760;52.248;20.952;2022-07-30T08:22:48;2.97;;;1.92;;
17283;SDS011;8760;52.248;20.952;2022-07-30T08:25:16;4.25;;;2.05;;
17283;SDS011;8760;52.248;20.952;2022-07-30T08:27:43;2.97;;;1.88;;
17283;SDS011;8760;52.248;20.952;2022-07-30T08:30:12;2.10;;;1.90;;
17283;SDS011;8760;52.248;20.952;2022-07-30T08:32:39;2.92;;;2.00;;
17283;SDS011;8760;52.248;20.952;2022-07-30T08:35:06;3.50;;;2.13;;
17283;SDS011;8760;52.248;20.952;2022-07-30T08:37:33;4.72;;;1.90;;
17283;SDS011;8760;52.248;20.952;2022-07-30T08:40:00;5.07;;;1.95;;
17283;SDS011;8760;52.248;20.952;2022-07-30T08:42:28;5.10;;;2.05;;
17283;SDS011;8760;52.248;20.952;2022-07-30T08:44:56;10.02;;;2.75;;
17283;SDS011;8760;52.248;20.952;2022-07-30T08:47:25;3.17;;;1.70;;
17283;SDS011;8760;52.248;20.952;2022-07-30T08:49:56;2.75;;;2.10;;
17283;SDS011;8760;52.248;20.952;2022-07-30T08:52:28;3.15;;;2.00;;
17283;SDS011;8760;52.248;20.952;2022-07-30T08:54:56;2.72;;;2.28;;
17283;SDS011;8760;52.248;20.952;2022-07-30T08:57:23;3.05;;;1.90;;
17283;SDS011;8760;52.248;20.952;2022-07-30T08:59:51;3.28;;;1.95;;
17283;SDS011;8760;52.248;20.952;2022-07-30T09:02:18;6.03;;;1.88;;
17283;SDS011;8760;52.248;20.952;2022-07-30T09:04:46;4.68;;;1.73;;
17283;SDS011;8760;52.248;20.952;2022-07-30T09:07:13;4.30;;;2.00;;
17283;SDS011;8760;52.248;20.952;2022-07-30T09:09:39;3.33;;;2.13;;
17283;SDS011;8760;52.248;20.952;2022-07-30T09:15:01;2.88;;;1.77;;
17283;SDS011;8760;52.248;20.952;2022-07-30T09:17:46;8.48;;;2.13;;
17283;SDS011;8760;52.248;20.952;2022-07-30T09:20:15;3.08;;;1.80;;
17283;SDS011;8760;52.248;20.952;2022-07-30T09:22:43;2.83;;;2.08;;
17283;SDS011;8760;52.248;20.952;2022-07-30T09:25:11;4.80;;;1.80;;
17283;SDS011;8760;52.248;20.952;2022-07-30T09:27:45;4.78;;;2.00;;
17283;SDS011;8760;52.248;20.952;2022-07-30T09:30:13;8.52;;;2.55;;
17283;SDS011;8760;52.248;20.952;2022-07-30T09:32:47;6.60;;;2.10;;
17283;SDS011;8760;52.248;20.952;2022-07-30T09:35:17;2.55;;;1.83;;
17283;SDS011;8760;52.248;20.952;2022-07-30T09:37:44;3.88;;;2.17;;
17283;SDS011;8760;52.248;20.952;2022-07-30T09:40:12;3.72;;;2.30;;
17283;SDS011;8760;52.248;20.952;2022-07-30T09:42:41;3.67;;;1.85;;
17283;SDS011;8760;52.248;20.952;2022-07-30T09:45:09;5.25;;;2.00;;
17283;SDS011;8760;52.248;20.952;2022-07-30T09:47:38;3.08;;;2.17;;
17283;SDS011;8760;52.248;20.952;2022-07-30T09:50:07;2.65;;;2.00;;
17283;SDS011;8760;52.248;20.952;2022-07-30T09:52:37;3.75;;;2.00;;
17283;SDS011;8760;52.248;20.952;2022-07-30T09:55:05;5.03;;;2.28;;
17283;SDS011;8760;52.248;20.952;2022-07-30T09:57:32;2.75;;;2.03;;
17283;SDS011;8760;52.248;20.952;2022-07-30T10:00:14;6.53;;;2.05;;
17283;SDS011;8760;52.248;20.952;2022-07-30T10:02:45;4.72;;;2.08;;
17283;SDS011;8760;52.248;20.952;2022-07-30T10:05:14;4.53;;;2.13;;
17283;SDS011;8760;52.248;20.952;2022-07-30T10:07:47;4.35;;;2.20;;
17283;SDS011;8760;52.248;20.952;2022-07-30T10:10:16;4.50;;;2.20;;
17283;SDS011;8760;52.248;20.952;2022-07-30T10:12:45;7.22;;;2.13;;
17283;SDS011;8760;52.248;20.952;2022-07-30T10:15:12;4.65;;;1.77;;
17283;SDS011;8760;52.248;20.952;2022-07-30T10:17:43;3.35;;;1.80;;
17283;SDS011;8760;52.248;20.952;2022-07-30T10:20:11;3.42;;;1.95;;
17283;SDS011;8760;52.248;20.952;2022-07-30T10:22:38;3.55;;;1.70;;
17283;SDS011;8760;52.248;20.952;2022-07-30T10:25:08;3.78;;;1.90;;
17283;SDS011;8760;52.248;20.952;2022-07-30T10:27:36;5.28;;;2.10;;
17283;SDS011;8760;52.248;20.952;2022-07-30T10:30:03;2.75;;;1.80;;
17283;SDS011;8760;52.248;20.952;2022-07-30T10:32:31;4.15;;;2.10;;
17283;SDS011;8760;52.248;20.952;2022-07-30T10:34:58;4.13;;;2.22;;
17283;SDS011;8760;52.248;20.952;2022-07-30T10:37:25;2.53;;;1.88;;
17283;SDS011;8760;52.248;20.952;2022-07-30T10:39:54;4.10;;;2.00;;
17283;SDS011;8760;52.248;20.952;2022-07-30T10:42:30;4.85;;;2.67;;
17283;SDS011;8760;52.248;20.952;2022-07-30T10:45:19;7.50;;;2.47;;
17283;SDS011;8760;52.248;20.952;2022-07-30T10:47:52;8.27;;;2.30;;
17283;SDS011;8760;52.248;20.952;2022-07-30T10:50:21;6.72;;;2.22;;
17283;SDS011;8760;52.248;20.952;2022-07-30T10:52:51;4.13;;;2.10;;
17283;SDS011;8760;52.248;20.952;2022-07-30T10:55:19;4.22;;;1.90;;
17283;SDS011;8760;52.248;20.952;2022-07-30T10:57:58;3.40;;;2.33;;
17283;SDS011;8760;52.248;20.952;2022-07-30T11:00:27;5.13;;;2.20;;
17283;SDS011;8760;52.248;20.952;2022-07-30T11:03:09;3.65;;;2.10;;
17283;SDS011;8760;52.248;20.952;2022-07-30T11:05:46;4.32;;;2.42;;
17283;SDS011;8760;52.248;20.952;2022-07-30T11:08:30;7.93;;;2.40;;
17283;SDS011;8760;52.248;20.952;2022-07-30T11:11:01;5.43;;;2.15;;
17283;SDS011;8760;52.248;20.952;2022-07-30T11:13:50;3.70;;;2.25;;
17283;SDS011;8760;52.248;20.952;2022-07-30T11:16:18;4.00;;;2.40;;
17283;SDS011;8760;52.248;20.952;2022-07-30T11:19:06;6.50;;;2.30;;
17283;SDS011;8760;52.248;20.952;2022-07-30T11:21:35;3.13;;;2.17;;
17283;SDS011;8760;52.248;20.952;2022-07-30T11:24:03;3.35;;;2.13;;
17283;SDS011;8760;52.248;20.952;2022-07-30T11:26:47;5.43;;;2.40;;
17283;SDS011;8760;52.248;20.952;2022-07-30T11:29:38;3.78;;;2.60;;
17283;SDS011;8760;52.248;20.952;2022-07-30T11:32:28;4.07;;;2.22;;
17283;SDS011;8760;52.248;20.952;2022-07-30T11:35:12;4.15;;;2.72;;
17283;SDS011;8760;52.248;20.952;2022-07-30T11:37:57;6.28;;;2.40;;
17283;SDS011;8760;52.248;20.952;2022-07-30T11:40:26;4.65;;;2.90;;
17283;SDS011;8760;52.248;20.952;2022-07-30T11:45:41;8.43;;;2.80;;
17283;SDS011;8760;52.248;20.952;2022-07-30T11:48:10;6.25;;;3.03;;
17283;SDS011;8760;52.248;20.952;2022-07-30T11:50:38;3.72;;;2.80;;
17283;SDS011;8760;52.248;20.952;2022-07-30T11:53:07;8.48;;;3.15;;
17283;SDS011;8760;52.248;20.952;2022-07-30T11:55:36;7.10;;;2.95;;
17283;SDS011;8760;52.248;20.952;2022-07-30T11:58:05;3.67;;;3.22;;
17283;SDS011;8760;52.248;20.952;2022-07-30T12:00:35;9.32;;;3.47;;
17283;SDS011;8760;52.248;20.952;2022-07-30T12:03:08;8.48;;;3.60;;
17283;SDS011;8760;52.248;20.952;2022-07-30T12:05:36;7.80;;;3.95;;
17283;SDS011;8760;52.248;20.952;2022-07-30T12:08:04;5.35;;;3.80;;
17283;SDS011;8760;52.248;20.952;2022-07-30T12:10:31;8.35;;;4.03;;
17283;SDS011;8760;52.248;20.952;2022-07-30T12:13:06;4.53;;;3.42;;
17283;SDS011;8760;52.248;20.952;2022-07-30T12:15:34;4.05;;;3.55;;
17283;SDS011;8760;52.248;20.952;2022-07-30T12:18:02;5.15;;;3.90;;
17283;SDS011;8760;52.248;20.952;2022-07-30T12:20:30;4.63;;;3.25;;
17283;SDS011;8760;52.248;20.952;2022-07-30T12:22:57;6.35;;;3.75;;
17283;SDS011;8760;52.248;20.952;2022-07-30T12:25:26;5.93;;;3.58;;
17283;SDS011;8760;52.248;20.952;2022-07-30T12:27:53;7.97;;;3.65;;
17283;SDS011;8760;52.248;20.952;2022-07-30T12:30:20;6.40;;;3.75;;
17283;SDS011;8760;52.248;20.952;2022-07-30T12:32:48;4.43;;;3.60;;
17283;SDS011;8760;52.248;20.952;2022-07-30T12:35:15;5.32;;;4.10;;
17283;SDS011;8760;52.248;20.952;2022-07-30T12:37:43;4.97;;;4.38;;
17283;SDS011;8760;52.248;20.952;2022-07-30T12:40:27;7.15;;;3.95;;
17283;SDS011;8760;52.248;20.952;2022-07-30T12:42:54;6.03;;;4.10;;
17283;SDS011;8760;52.248;20.952;2022-07-30T12:45:25;4.70;;;3.95;;
17283;SDS011;8760;52.248;20.952;2022-07-30T12:47:53;6.78;;;3.90;;
17283;SDS011;8760;52.248;20.952;2022-07-30T12:50:20;6.90;;;3.55;;
17283;SDS011;8760;52.248;20.952;2022-07-30T12:52:48;5.68;;;3.70;;
17283;SDS011;8760;52.248;20.952;2022-07-30T12:55:17;5.85;;;3.80;;
17283;SDS011;8760;52.248;20.952;2022-07-30T12:57:51;4.90;;;3.75;;
17283;SDS011;8760;52.248;20.952;2022-07-30T13:00:19;6.05;;;3.20;;
17283;SDS011;8760;52.248;20.952;2022-07-30T13:02:46;4.05;;;3.40;;
17283;SDS011;8760;52.248;20.952;2022-07-30T13:05:13;4.65;;;3.30;;
17283;SDS011;8760;52.248;20.952;2022-07-30T13:07:57;6.25;;;3.22;;
17283;SDS011;8760;52.248;20.952;2022-07-30T13:10:25;4.78;;;3.40;;
17283;SDS011;8760;52.248;20.952;2022-07-30T13:12:52;6.05;;;3.67;;
17283;SDS011;8760;52.248;20.952;2022-07-30T13:15:20;3.97;;;3.10;;
17283;SDS011;8760;52.248;20.952;2022-07-30T13:17:47;3.72;;;3.30;;
17283;SDS011;8760;52.248;20.952;2022-07-30T13:20:14;3.75;;;2.92;;
17283;SDS011;8760;52.248;20.952;2022-07-30T13:22:42;4.25;;;3.28;;
17283;SDS011;8760;52.248;20.952;2022-07-30T13:25:10;5.30;;;3.20;;
17283;SDS011;8760;52.248;20.952;2022-07-30T13:27:38;4.13;;;3.08;;
17283;SDS011;8760;52.248;20.952;2022-07-30T13:30:05;5.05;;;3.33;;
17283;SDS011;8760;52.248;20.952;2022-07-30T13:32:33;6.35;;;3.00;;
17283;SDS011;8760;52.248;20.952;2022-07-30T13:35:00;3.85;;;3.17;;
17283;SDS011;8760;52.248;20.952;2022-07-30T13:37:28;4.78;;;3.03;;
17283;SDS011;8760;52.248;20.952;2022-07-30T13:39:55;4.15;;;3.15;;
17283;SDS011;8760;52.248;20.952;2022-07-30T13:42:23;4.22;;;3.28;;
17283;SDS011;8760;52.248;20.952;2022-07-30T13:44:49;5.28;;;3.20;;
17283;SDS011;8760;52.248;20.952;2022-07-30T13:47:16;4.28;;;3.20;;
17283;SDS011;8760;52.248;20.952;2022-07-30T13:49:43;4.82;;;3.05;;
17283;SDS011;8760;52.248;20.952;2022-07-30T13:52:13;5.10;;;4.43;;
17283;SDS011;8760;52.248;20.952;2022-07-30T13:54:40;5.85;;;4.20;;
17283;SDS011;8760;52.248;20.952;2022-07-30T13:57:07;3.95;;;3.35;;
17283;SDS011;8760;52.248;20.952;2022-07-30T13:59:35;4.30;;;3.35;;
17283;SDS011;8760;52.248;20.952;2022-07-30T14:02:03;5.47;;;3.53;;
17283;SDS011;8760;52.248;20.952;2022-07-30T14:04:30;6.40;;;3.58;;
17283;SDS011;8760;52.248;20.952;2022-07-30T14:06:56;5.18;;;3.80;;
17283;SDS011;8760;52.248;20.952;2022-07-30T14:09:23;8.68;;;3.72;;
17283;SDS011;8760;52.248;20.952;2022-07-30T14:11:50;4.97;;;3.88;;
17283;SDS011;8760;52.248;20.952;2022-07-30T14:14:17;4.90;;;3.72;;
17283;SDS011;8760;52.248;20.952;2022-07-30T14:16:47;5.22;;;3.58;;
17283;SDS011;8760;52.248;20.952;2022-07-30T14:19:16;4.55;;;3.60;;
17283;SDS011;8760;52.248;20.952;2022-07-30T14:21:43;7.22;;;4.03;;
17283;SDS011;8760;52.248;20.952;2022-07-30T14:24:10;7.00;;;4.22;;
17283;SDS011;8760;52.248;20.952;2022-07-30T14:26:37;6.35;;;4.10;;
17283;SDS011;8760;52.248;20.952;2022-07-30T14:29:04;6.88;;;4.05;;
17283;SDS011;8760;52.248;20.952;2022-07-30T14:31:31;5.57;;;4.18;;
17283;SDS011;8760;52.248;20.952;2022-07-30T14:34:00;9.13;;;4.57;;
17283;SDS011;8760;52.248;20.952;2022-07-30T14:36:27;5.53;;;3.47;;
17283;SDS011;8760;52.248;20.952;2022-07-30T14:38:54;7.28;;;3.92;;
17283;SDS011;8760;52.248;20.952;2022-07-30T14:41:23;5.68;;;3.25;;
17283;SDS011;8760;52.248;20.952;2022-07-30T14:43:50;6.40;;;3.88;;
17283;SDS011;8760;52.248;20.952;2022-07-30T14:46:17;5.50;;;3.28;;
17283;SDS011;8760;52.248;20.952;2022-07-30T14:48:43;8.68;;;3.83;;
17283;SDS011;8760;52.248;20.952;2022-07-30T14:51:12;4.40;;;3.35;;
17283;SDS011;8760;52.248;20.952;2022-07-30T14:53:39;5.22;;;3.50;;
17283;SDS011;8760;52.248;20.952;2022-07-30T14:56:06;6.70;;;3.53;;
17283;SDS011;8760;52.248;20.952;2022-07-30T14:58:32;4.10;;;3.70;;
17283;SDS011;8760;52.248;20.952;2022-07-30T15:00:59;5.30;;;3.15;;
17283;SDS011;8760;52.248;20.952;2022-07-30T15:03:28;5.97;;;3.40;;